nws-alerts: Checking more than four warning/county codes can delay the loading of your pages. You should use a cron job to get the data.
EllijayWeather Station Historical Data
Daily Summary for May 16, 2019 Units:  Both    English   Metric
Daily Weekly Monthly Yearly Custom
  High: Low: Average:
Temperature: 80.4 °F /  26.9 °C 51.6 °F /  10.9 °C 65 °F /  18.3 °C
Dew Point: 64.6 °F /  18.1 °C 50.5 °F /  10.3 °C 58.1 °F /  14.5 °C
Humidity: 97% 47% 81%
Wind Speed: 4mph /  6.4km/h - 0.1mph /  0.2km/h
Wind Gust: 8mph /  12.9km/h - -
Wind- - South
Pressure: 30.11 in /  1019.5 hPa 29.96 in /  1014.4 hPa -
Precipitation: 0 in /  0 mm    
Historical Graphs
 
 
Tabular Data for May 16, 2019
Time Temperature Dew Point Pressure Wind Wind Speed Wind Gust Humidity Rainfall Rate (Hourly) solar
00:04 55.8 °F /  13.2 °C 54.1 °F /  12.3 °C 30.09in /  1018.8hPa Calm     94% 0in /  0mm meteobridge W/m2
00:09 55.8 °F /  13.2 °C 54.1 °F /  12.3 °C 30.09in /  1018.8hPa Calm     94% 0in /  0mm meteobridge W/m2
00:14 55.6 °F /  13.1 °C 54 °F /  12.2 °C 30.09in /  1018.8hPa Calm     94% 0in /  0mm meteobridge W/m2
00:19 55.6 °F /  13.1 °C 54 °F /  12.2 °C 30.09in /  1018.8hPa Calm     94% 0in /  0mm meteobridge W/m2
00:24 55.6 °F /  13.1 °C 54 °F /  12.2 °C 30.09in /  1018.8hPa Calm     94% 0in /  0mm meteobridge W/m2
00:29 55.6 °F /  13.1 °C 54 °F /  12.2 °C 30.09in /  1018.8hPa Calm     94% 0in /  0mm meteobridge W/m2
00:34 55.6 °F /  13.1 °C 54 °F /  12.2 °C 30.09in /  1018.8hPa Calm     94% 0in /  0mm meteobridge W/m2
00:39 55.4 °F /  13 °C 53.8 °F /  12.1 °C 30.09in /  1018.8hPa Calm     94% 0in /  0mm meteobridge W/m2
00:44 55.4 °F /  13 °C 53.4 °F /  11.9 °C 30.09in /  1018.8hPa Calm     93% 0in /  0mm meteobridge W/m2
00:49 55 °F /  12.8 °C 53.1 °F /  11.7 °C 30.09in /  1018.8hPa Calm     93% 0in /  0mm meteobridge W/m2
00:54 55 °F /  12.8 °C 53.1 °F /  11.7 °C 30.09in /  1018.8hPa Calm     93% 0in /  0mm meteobridge W/m2
00:59 54.9 °F /  12.7 °C 53.2 °F /  11.8 °C 30.09in /  1018.8hPa Calm     94% 0in /  0mm meteobridge W/m2
01:04 54.9 °F /  12.7 °C 53.2 °F /  11.8 °C 30.09in /  1018.8hPa Calm     94% 0in /  0mm meteobridge W/m2
01:09 54.9 °F /  12.7 °C 53.4 °F /  11.9 °C 30.09in /  1018.8hPa Calm     95% 0in /  0mm meteobridge W/m2
01:14 54.9 °F /  12.7 °C 53.4 °F /  11.9 °C 30.08in /  1018.5hPa Calm     95% 0in /  0mm meteobridge W/m2
01:19 55 °F /  12.8 °C 53.6 °F /  12 °C 30.08in /  1018.5hPa Calm     95% 0in /  0mm meteobridge W/m2
01:24 55 °F /  12.8 °C 53.6 °F /  12 °C 30.08in /  1018.5hPa Calm     95% 0in /  0mm meteobridge W/m2
01:29 54.9 °F /  12.7 °C 53.2 °F /  11.8 °C 30.08in /  1018.5hPa Calm     94% 0in /  0mm meteobridge W/m2
01:34 54.9 °F /  12.7 °C 53.2 °F /  11.8 °C 30.08in /  1018.5hPa Calm     94% 0in /  0mm meteobridge W/m2
01:39 54.9 °F /  12.7 °C 53.2 °F /  11.8 °C 30.08in /  1018.5hPa Calm     94% 0in /  0mm meteobridge W/m2
01:44 54.5 °F /  12.5 °C 52.9 °F /  11.6 °C 30.07in /  1018.2hPa Calm     94% 0in /  0mm meteobridge W/m2
01:49 54.3 °F /  12.4 °C 52.7 °F /  11.5 °C 30.08in /  1018.5hPa Calm     94% 0in /  0mm meteobridge W/m2
01:54 54.3 °F /  12.4 °C 52.7 °F /  11.5 °C 30.08in /  1018.5hPa Calm     94% 0in /  0mm meteobridge W/m2
01:59 54.1 °F /  12.3 °C 52.5 °F /  11.4 °C 30.08in /  1018.5hPa Calm     94% 0in /  0mm meteobridge W/m2
02:04 54 °F /  12.2 °C 52.3 °F /  11.3 °C 30.07in /  1018.2hPa Calm     94% 0in /  0mm meteobridge W/m2
02:09 53.8 °F /  12.1 °C 52.2 °F /  11.2 °C 30.07in /  1018.2hPa Calm     94% 0in /  0mm meteobridge W/m2
02:14 53.8 °F /  12.1 °C 52.2 °F /  11.2 °C 30.07in /  1018.2hPa Calm     94% 0in /  0mm meteobridge W/m2
02:19 53.4 °F /  11.9 °C 51.8 °F /  11 °C 30.07in /  1018.2hPa Calm     94% 0in /  0mm meteobridge W/m2
02:24 53.2 °F /  11.8 °C 51.6 °F /  10.9 °C 30.07in /  1018.2hPa Calm     94% 0in /  0mm meteobridge W/m2
02:29 53.2 °F /  11.8 °C 51.8 °F /  11 °C 30.07in /  1018.2hPa Calm     95% 0in /  0mm meteobridge W/m2
02:34 53.1 °F /  11.7 °C 51.6 °F /  10.9 °C 30.06in /  1017.8hPa Calm     95% 0in /  0mm meteobridge W/m2
02:39 52.9 °F /  11.6 °C 51.4 °F /  10.8 °C 30.07in /  1018.2hPa Calm     95% 0in /  0mm meteobridge W/m2
02:44 52.9 °F /  11.6 °C 51.4 °F /  10.8 °C 30.07in /  1018.2hPa Calm     95% 0in /  0mm meteobridge W/m2
02:49 52.7 °F /  11.5 °C 51.3 °F /  10.7 °C 30.07in /  1018.2hPa Calm     95% 0in /  0mm meteobridge W/m2
02:54 52.7 °F /  11.5 °C 51.3 °F /  10.7 °C 30.06in /  1017.8hPa Calm     95% 0in /  0mm meteobridge W/m2
02:59 52.5 °F /  11.4 °C 51.1 °F /  10.6 °C 30.07in /  1018.2hPa Calm     95% 0in /  0mm meteobridge W/m2
03:04 52.7 °F /  11.5 °C 51.6 °F /  10.9 °C 30.07in /  1018.2hPa Calm     96% 0in /  0mm meteobridge W/m2
03:09 52.5 °F /  11.4 °C 51.4 °F /  10.8 °C 30.06in /  1017.8hPa Calm     96% 0in /  0mm meteobridge W/m2
03:14 52.5 °F /  11.4 °C 51.4 °F /  10.8 °C 30.06in /  1017.8hPa Calm     96% 0in /  0mm meteobridge W/m2
03:19 52.5 °F /  11.4 °C 51.1 °F /  10.6 °C 30.06in /  1017.8hPa Calm     95% 0in /  0mm meteobridge W/m2
03:24 52.5 °F /  11.4 °C 51.1 °F /  10.6 °C 30.06in /  1017.8hPa Calm     95% 0in /  0mm meteobridge W/m2
03:29 52.5 °F /  11.4 °C 51.1 °F /  10.6 °C 30.06in /  1017.8hPa Calm     95% 0in /  0mm meteobridge W/m2
03:34 52.3 °F /  11.3 °C 51.3 °F /  10.7 °C 30.06in /  1017.8hPa Calm     96% 0in /  0mm meteobridge W/m2
03:39 52.5 °F /  11.4 °C 51.4 °F /  10.8 °C 30.06in /  1017.8hPa Calm     96% 0in /  0mm meteobridge W/m2
03:44 52.5 °F /  11.4 °C 51.4 °F /  10.8 °C 30.06in /  1017.8hPa Calm     96% 0in /  0mm meteobridge W/m2
03:49 52.5 °F /  11.4 °C 51.4 °F /  10.8 °C 30.06in /  1017.8hPa Calm     96% 0in /  0mm meteobridge W/m2
03:54 52.5 °F /  11.4 °C 51.4 °F /  10.8 °C 30.06in /  1017.8hPa Calm     96% 0in /  0mm meteobridge W/m2
03:59 52.5 °F /  11.4 °C 51.4 °F /  10.8 °C 30.06in /  1017.8hPa Calm     96% 0in /  0mm meteobridge W/m2
04:04 52.5 °F /  11.4 °C 51.4 °F /  10.8 °C 30.06in /  1017.8hPa Calm     96% 0in /  0mm meteobridge W/m2
04:09 52.9 °F /  11.6 °C 51.8 °F /  11 °C 30.06in /  1017.8hPa Calm     96% 0in /  0mm meteobridge W/m2
04:14 52.9 °F /  11.6 °C 51.8 °F /  11 °C 30.06in /  1017.8hPa Calm     96% 0in /  0mm meteobridge W/m2
04:19 52.9 °F /  11.6 °C 51.8 °F /  11 °C 30.06in /  1017.8hPa Calm     96% 0in /  0mm meteobridge W/m2
04:24 52.9 °F /  11.6 °C 51.8 °F /  11 °C 30.06in /  1017.8hPa Calm     96% 0in /  0mm meteobridge W/m2
04:29 52.7 °F /  11.5 °C 51.6 °F /  10.9 °C 30.06in /  1017.8hPa Calm     96% 0in /  0mm meteobridge W/m2
04:34 52.5 °F /  11.4 °C 51.4 °F /  10.8 °C 30.06in /  1017.8hPa Calm     96% 0in /  0mm meteobridge W/m2
04:39 52.5 °F /  11.4 °C 51.4 °F /  10.8 °C 30.06in /  1017.8hPa Calm     96% 0in /  0mm meteobridge W/m2
04:44 52.5 °F /  11.4 °C 51.4 °F /  10.8 °C 30.06in /  1017.8hPa Calm     96% 0in /  0mm meteobridge W/m2
04:49 52.5 °F /  11.4 °C 51.4 °F /  10.8 °C 30.06in /  1017.8hPa Calm     96% 0in /  0mm meteobridge W/m2
04:54 52.5 °F /  11.4 °C 51.4 °F /  10.8 °C 30.06in /  1017.8hPa Calm     96% 0in /  0mm meteobridge W/m2
04:59 52.5 °F /  11.4 °C 51.4 °F /  10.8 °C 30.06in /  1017.8hPa Calm     96% 0in /  0mm meteobridge W/m2
05:04 52.5 °F /  11.4 °C 51.4 °F /  10.8 °C 30.06in /  1017.8hPa Calm     96% 0in /  0mm meteobridge W/m2
05:09 52.3 °F /  11.3 °C 51.3 °F /  10.7 °C 30.06in /  1017.8hPa Calm     96% 0in /  0mm meteobridge W/m2
05:14 52.5 °F /  11.4 °C 51.4 °F /  10.8 °C 30.06in /  1017.8hPa Calm     96% 0in /  0mm meteobridge W/m2
05:19 52.3 °F /  11.3 °C 51.3 °F /  10.7 °C 30.06in /  1017.8hPa Calm     96% 0in /  0mm meteobridge W/m2
05:24 52.3 °F /  11.3 °C 51.3 °F /  10.7 °C 30.06in /  1017.8hPa Calm     96% 0in /  0mm meteobridge W/m2
05:29 52.3 °F /  11.3 °C 51.3 °F /  10.7 °C 30.06in /  1017.8hPa Calm     96% 0in /  0mm meteobridge W/m2
05:34 52.3 °F /  11.3 °C 51.3 °F /  10.7 °C 30.06in /  1017.8hPa Calm     96% 0in /  0mm meteobridge W/m2
05:39 52.2 °F /  11.2 °C 51.1 °F /  10.6 °C 30.06in /  1017.8hPa Calm     96% 0in /  0mm meteobridge W/m2
05:44 52.2 °F /  11.2 °C 51.1 °F /  10.6 °C 30.06in /  1017.8hPa Calm     96% 0in /  0mm meteobridge W/m2
05:49 52.2 °F /  11.2 °C 51.1 °F /  10.6 °C 30.06in /  1017.8hPa Calm     96% 0in /  0mm meteobridge W/m2
05:54 52.2 °F /  11.2 °C 51.1 °F /  10.6 °C 30.06in /  1017.8hPa Calm     96% 0in /  0mm meteobridge W/m2
05:59 52.2 °F /  11.2 °C 51.1 °F /  10.6 °C 30.06in /  1017.8hPa Calm     96% 0in /  0mm meteobridge W/m2
06:04 52 °F /  11.1 °C 50.9 °F /  10.5 °C 30.06in /  1017.8hPa Calm     96% 0in /  0mm meteobridge W/m2
06:09 52 °F /  11.1 °C 50.9 °F /  10.5 °C 30.06in /  1017.8hPa Calm     96% 0in /  0mm meteobridge W/m2
06:14 52 °F /  11.1 °C 50.9 °F /  10.5 °C 30.06in /  1017.8hPa Calm     96% 0in /  0mm meteobridge W/m2
06:19 52 °F /  11.1 °C 50.9 °F /  10.5 °C 30.06in /  1017.8hPa Calm     96% 0in /  0mm meteobridge W/m2
06:24 51.8 °F /  11 °C 50.7 °F /  10.4 °C 30.06in /  1017.8hPa Calm     96% 0in /  0mm meteobridge W/m2
06:29 52 °F /  11.1 °C 50.9 °F /  10.5 °C 30.06in /  1017.8hPa Calm     96% 0in /  0mm meteobridge W/m2
06:34 51.8 °F /  11 °C 50.7 °F /  10.4 °C 30.07in /  1018.2hPa Calm     96% 0in /  0mm meteobridge W/m2
06:39 51.6 °F /  10.9 °C 50.5 °F /  10.3 °C 30.07in /  1018.2hPa Calm     96% 0in /  0mm meteobridge W/m2
06:44 51.6 °F /  10.9 °C 50.5 °F /  10.3 °C 30.07in /  1018.2hPa Calm     96% 0in /  0mm meteobridge W/m2
06:49 51.6 °F /  10.9 °C 50.7 °F /  10.4 °C 30.07in /  1018.2hPa Calm     97% 0in /  0mm meteobridge W/m2
06:54 51.8 °F /  11 °C 50.9 °F /  10.5 °C 30.07in /  1018.2hPa Calm     97% 0in /  0mm meteobridge W/m2
06:59 51.8 °F /  11 °C 50.9 °F /  10.5 °C 30.08in /  1018.5hPa Calm     97% 0in /  0mm meteobridge W/m2
07:04 52 °F /  11.1 °C 51.1 °F /  10.6 °C 30.08in /  1018.5hPa Calm     97% 0in /  0mm meteobridge W/m2
07:08 52 °F /  11.1 °C 51.1 °F /  10.6 °C 30.09in /  1018.8hPa Calm     97% 0in /  0mm meteobridge W/m2
07:14 52.2 °F /  11.2 °C 51.3 °F /  10.7 °C 30.08in /  1018.5hPa Calm     97% 0in /  0mm meteobridge W/m2
07:19 52.2 °F /  11.2 °C 51.3 °F /  10.7 °C 30.09in /  1018.8hPa Calm     97% 0in /  0mm meteobridge W/m2
07:24 52.3 °F /  11.3 °C 51.4 °F /  10.8 °C 30.08in /  1018.5hPa Calm     97% 0in /  0mm meteobridge W/m2
07:29 52.5 °F /  11.4 °C 51.6 °F /  10.9 °C 30.09in /  1018.8hPa Calm     97% 0in /  0mm meteobridge W/m2
07:34 52.7 °F /  11.5 °C 51.8 °F /  11 °C 30.09in /  1018.8hPa Calm     97% 0in /  0mm meteobridge W/m2
07:39 52.9 °F /  11.6 °C 52 °F /  11.1 °C 30.09in /  1018.8hPa Calm     97% 0in /  0mm meteobridge W/m2
07:44 53.1 °F /  11.7 °C 52 °F /  11.1 °C 30.09in /  1018.8hPa Calm     96% 0in /  0mm meteobridge W/m2
07:49 53.2 °F /  11.8 °C 52.2 °F /  11.2 °C 30.09in /  1018.8hPa Calm     96% 0in /  0mm meteobridge W/m2
07:54 53.4 °F /  11.9 °C 52.5 °F /  11.4 °C 30.09in /  1018.8hPa Calm     97% 0in /  0mm meteobridge W/m2
07:59 53.8 °F /  12.1 °C 52.7 °F /  11.5 °C 30.09in /  1018.8hPa Calm     96% 0in /  0mm meteobridge W/m2
08:04 54 °F /  12.2 °C 52.5 °F /  11.4 °C 30.09in /  1018.8hPa Calm     95% 0in /  0mm meteobridge W/m2
08:09 54.1 °F /  12.3 °C 52.7 °F /  11.5 °C 30.09in /  1018.8hPa Calm     95% 0in /  0mm meteobridge W/m2
08:14 54.3 °F /  12.4 °C 52.7 °F /  11.5 °C 30.09in /  1018.8hPa Calm     94% 0in /  0mm meteobridge W/m2
08:19 54.9 °F /  12.7 °C 53.4 °F /  11.9 °C 30.09in /  1018.8hPa Calm     95% 0in /  0mm meteobridge W/m2
08:24 55 °F /  12.8 °C 53.6 °F /  12 °C 30.09in /  1018.8hPa Calm     95% 0in /  0mm meteobridge W/m2
08:29 55.4 °F /  13 °C 53.4 °F /  11.9 °C 30.10in /  1019.2hPa Calm     93% 0in /  0mm meteobridge W/m2
08:34 55.8 °F /  13.2 °C 54.1 °F /  12.3 °C 30.10in /  1019.2hPa Calm     94% 0in /  0mm meteobridge W/m2
08:39 56.1 °F /  13.4 °C 54.5 °F /  12.5 °C 30.10in /  1019.2hPa Calm     94% 0in /  0mm meteobridge W/m2
08:44 56.5 °F /  13.6 °C 54.5 °F /  12.5 °C 30.10in /  1019.2hPa Calm     93% 0in /  0mm meteobridge W/m2
08:49 56.8 °F /  13.8 °C 55.2 °F /  12.9 °C 30.10in /  1019.2hPa Calm     94% 0in /  0mm meteobridge W/m2
08:54 57.2 °F /  14 °C 55.4 °F /  13 °C 30.11in /  1019.5hPa Calm     94% 0in /  0mm meteobridge W/m2
08:59 57.4 °F /  14.1 °C 55.4 °F /  13 °C 30.10in /  1019.2hPa Calm     93% 0in /  0mm meteobridge W/m2
09:04 57.6 °F /  14.2 °C 55.6 °F /  13.1 °C 30.10in /  1019.2hPa Calm     93% 0in /  0mm meteobridge W/m2
09:09 57.9 °F /  14.4 °C 55.9 °F /  13.3 °C 30.10in /  1019.2hPa Calm     93% 0in /  0mm meteobridge W/m2
09:14 58.3 °F /  14.6 °C 55.9 °F /  13.3 °C 30.10in /  1019.2hPa Calm     92% 0in /  0mm meteobridge W/m2
09:19 58.5 °F /  14.7 °C 56.1 °F /  13.4 °C 30.10in /  1019.2hPa Calm     92% 0in /  0mm meteobridge W/m2
09:24 59 °F /  15 °C 56.3 °F /  13.5 °C 30.10in /  1019.2hPa Calm     91% 0in /  0mm meteobridge W/m2
09:29 59.4 °F /  15.2 °C 57 °F /  13.9 °C 30.10in /  1019.2hPa Calm     92% 0in /  0mm meteobridge W/m2
09:34 59.7 °F /  15.4 °C 57 °F /  13.9 °C 30.10in /  1019.2hPa Calm     91% 0in /  0mm meteobridge W/m2
09:39 60.1 °F /  15.6 °C 56.5 °F /  13.6 °C 30.10in /  1019.2hPa Calm     88% 0in /  0mm meteobridge W/m2
09:44 60.6 °F /  15.9 °C 57 °F /  13.9 °C 30.10in /  1019.2hPa Calm     88% 0in /  0mm meteobridge W/m2
09:49 61.2 °F /  16.2 °C 57 °F /  13.9 °C 30.10in /  1019.2hPa Calm     86% 0in /  0mm meteobridge W/m2
09:54 61.9 °F /  16.6 °C 57.4 °F /  14.1 °C 30.10in /  1019.2hPa Calm     85% 0in /  0mm meteobridge W/m2
09:59 62.1 °F /  16.7 °C 58.1 °F /  14.5 °C 30.10in /  1019.2hPa Calm     87% 0in /  0mm meteobridge W/m2
10:04 62.2 °F /  16.8 °C 57.9 °F /  14.4 °C 30.10in /  1019.2hPa Calm     86% 0in /  0mm meteobridge W/m2
10:09 62.8 °F /  17.1 °C 58.5 °F /  14.7 °C 30.10in /  1019.2hPa Calm     86% 0in /  0mm meteobridge W/m2
10:14 63 °F /  17.2 °C 59 °F /  15 °C 30.10in /  1019.2hPa Calm     87% 0in /  0mm meteobridge W/m2
10:19 63.3 °F /  17.4 °C 59.4 °F /  15.2 °C 30.09in /  1018.8hPa Calm     87% 0in /  0mm meteobridge W/m2
10:24 63.9 °F /  17.7 °C 59.9 °F /  15.5 °C 30.10in /  1019.2hPa Calm     87% 0in /  0mm meteobridge W/m2
10:29 63.9 °F /  17.7 °C 59 °F /  15 °C 30.10in /  1019.2hPa Calm     84% 0in /  0mm meteobridge W/m2
10:34 64.2 °F /  17.9 °C 58.3 °F /  14.6 °C 30.10in /  1019.2hPa Calm     81% 0in /  0mm meteobridge W/m2
10:39 64.8 °F /  18.2 °C 58.8 °F /  14.9 °C 30.10in /  1019.2hPa Calm     81% 0in /  0mm meteobridge W/m2
10:44 65.3 °F /  18.5 °C 59.7 °F /  15.4 °C 30.10in /  1019.2hPa Calm     82% 0in /  0mm meteobridge W/m2
10:49 65.7 °F /  18.7 °C 60.4 °F /  15.8 °C 30.10in /  1019.2hPa Calm     83% 0in /  0mm meteobridge W/m2
10:54 66 °F /  18.9 °C 60.4 °F /  15.8 °C 30.10in /  1019.2hPa Calm     82% 0in /  0mm meteobridge W/m2
10:59 66.4 °F /  19.1 °C 60.8 °F /  16 °C 30.10in /  1019.2hPa Calm     82% 0in /  0mm meteobridge W/m2
11:04 66.7 °F /  19.3 °C 60.1 °F /  15.6 °C 30.10in /  1019.2hPa Calm     79% 0in /  0mm meteobridge W/m2
11:09 67.3 °F /  19.6 °C 61 °F /  16.1 °C 30.09in /  1018.8hPa Calm     80% 0in /  0mm meteobridge W/m2
11:14 67.5 °F /  19.7 °C 60.1 °F /  15.6 °C 30.09in /  1018.8hPa Calm     77% 0in /  0mm meteobridge W/m2
11:19 67.8 °F /  19.9 °C 60.3 °F /  15.7 °C 30.09in /  1018.8hPa Calm     77% 0in /  0mm meteobridge W/m2
11:24 68.4 °F /  20.2 °C 60.4 °F /  15.8 °C 30.09in /  1018.8hPa Calm     76% 0in /  0mm meteobridge W/m2
11:29 69.1 °F /  20.6 °C 60.8 °F /  16 °C 30.09in /  1018.8hPa Calm     75% 0in /  0mm meteobridge W/m2
11:34 69.4 °F /  20.8 °C 61.2 °F /  16.2 °C 30.09in /  1018.8hPa Calm     75% 0in /  0mm meteobridge W/m2
11:39 70 °F /  21.1 °C 61.3 °F /  16.3 °C 30.09in /  1018.8hPa Calm   1mph /  1.6km/h 74% 0in /  0mm meteobridge W/m2
11:44 70.7 °F /  21.5 °C 61.2 °F /  16.2 °C 30.09in /  1018.8hPa Calm     72% 0in /  0mm meteobridge W/m2
11:49 71.2 °F /  21.8 °C 61.7 °F /  16.5 °C 30.09in /  1018.8hPa Calm   4mph /  6.4km/h 72% 0in /  0mm meteobridge W/m2
11:54 72 °F /  22.2 °C 63.1 °F /  17.3 °C 30.09in /  1018.8hPa Calm   2mph /  3.2km/h 74% 0in /  0mm meteobridge W/m2
11:59 72.3 °F /  22.4 °C 62.1 °F /  16.7 °C 30.08in /  1018.5hPa Calm   4mph /  6.4km/h 70% 0in /  0mm meteobridge W/m2
12:04 72.9 °F /  22.7 °C 62.4 °F /  16.9 °C 30.08in /  1018.5hPa Calm   1mph /  1.6km/h 70% 0in /  0mm meteobridge W/m2
12:09 73.2 °F /  22.9 °C 62.8 °F /  17.1 °C 30.08in /  1018.5hPa Calm     70% 0in /  0mm meteobridge W/m2
12:14 73.4 °F /  23 °C 63 °F /  17.2 °C 30.08in /  1018.5hPa Calm   1mph /  1.6km/h 70% 0in /  0mm meteobridge W/m2
12:19 73.6 °F /  23.1 °C 64 °F /  17.8 °C 30.07in /  1018.2hPa Calm     72% 0in /  0mm meteobridge W/m2
12:24 73.8 °F /  23.2 °C 63 °F /  17.2 °C 30.07in /  1018.2hPa Calm     69% 0in /  0mm meteobridge W/m2
12:29 73.9 °F /  23.3 °C 62.8 °F /  17.1 °C 30.07in /  1018.2hPa NNW 0.9mph /  1.4km/h 1mph /  1.6km/h 68% 0in /  0mm meteobridge W/m2
12:34 74.1 °F /  23.4 °C 63 °F /  17.2 °C 30.07in /  1018.2hPa Calm     68% 0in /  0mm meteobridge W/m2
12:39 74.1 °F /  23.4 °C 63.7 °F /  17.6 °C 30.06in /  1017.8hPa Calm     70% 0in /  0mm meteobridge W/m2
12:44 74.1 °F /  23.4 °C 63.3 °F /  17.4 °C 30.06in /  1017.8hPa NE 0.9mph /  1.4km/h 1mph /  1.6km/h 69% 0in /  0mm meteobridge W/m2
12:49 74.1 °F /  23.4 °C 63.7 °F /  17.6 °C 30.06in /  1017.8hPa Calm     70% 0in /  0mm meteobridge W/m2
12:54 74.5 °F /  23.6 °C 63.7 °F /  17.6 °C 30.05in /  1017.5hPa Calm   5mph /  8km/h 69% 0in /  0mm meteobridge W/m2
12:59 74.8 °F /  23.8 °C 62.8 °F /  17.1 °C 30.05in /  1017.5hPa ENE 2mph /  3.2km/h 3mph /  4.8km/h 66% 0in /  0mm meteobridge W/m2
13:04 75.4 °F /  24.1 °C 63.1 °F /  17.3 °C 30.05in /  1017.5hPa Calm   3mph /  4.8km/h 66% 0in /  0mm meteobridge W/m2
13:09 75.7 °F /  24.3 °C 63.1 °F /  17.3 °C 30.05in /  1017.5hPa Calm   3mph /  4.8km/h 65% 0in /  0mm meteobridge W/m2
13:14 76.3 °F /  24.6 °C 63.1 °F /  17.3 °C 30.05in /  1017.5hPa Calm   1mph /  1.6km/h 64% 0in /  0mm meteobridge W/m2
13:19 76.6 °F /  24.8 °C 64 °F /  17.8 °C 30.05in /  1017.5hPa Calm     65% 0in /  0mm meteobridge W/m2
13:24 77 °F /  25 °C 62.6 °F /  17 °C 30.04in /  1017.2hPa Calm   4mph /  6.4km/h 61% 0in /  0mm meteobridge W/m2
13:29 77.5 °F /  25.3 °C 63 °F /  17.2 °C 30.04in /  1017.2hPa Calm   4mph /  6.4km/h 61% 0in /  0mm meteobridge W/m2
13:34 77.9 °F /  25.5 °C 63 °F /  17.2 °C 30.04in /  1017.2hPa WSW 0.9mph /  1.4km/h 5mph /  8km/h 60% 0in /  0mm meteobridge W/m2
13:39 78.1 °F /  25.6 °C 63.5 °F /  17.5 °C 30.04in /  1017.2hPa Calm   4mph /  6.4km/h 61% 0in /  0mm meteobridge W/m2
13:44 77.7 °F /  25.4 °C 64 °F /  17.8 °C 30.04in /  1017.2hPa Calm     63% 0in /  0mm meteobridge W/m2
13:49 77.7 °F /  25.4 °C 62.2 °F /  16.8 °C 30.03in /  1016.8hPa Calm   3mph /  4.8km/h 59% 0in /  0mm meteobridge W/m2
13:54 78.1 °F /  25.6 °C 62.6 °F /  17 °C 30.03in /  1016.8hPa NNW 4mph /  6.4km/h 4mph /  6.4km/h 59% 0in /  0mm meteobridge W/m2
13:59 78.1 °F /  25.6 °C 62.6 °F /  17 °C 30.03in /  1016.8hPa Calm   3mph /  4.8km/h 59% 0in /  0mm meteobridge W/m2
14:04 78.1 °F /  25.6 °C 63.1 °F /  17.3 °C 30.03in /  1016.8hPa WNW 2mph /  3.2km/h 4mph /  6.4km/h 60% 0in /  0mm meteobridge W/m2
14:09 78.1 °F /  25.6 °C 63.1 °F /  17.3 °C 30.03in /  1016.8hPa Calm     60% 0in /  0mm meteobridge W/m2
14:14 77.7 °F /  25.4 °C 62.8 °F /  17.1 °C 30.03in /  1016.8hPa Calm   1mph /  1.6km/h 60% 0in /  0mm meteobridge W/m2
14:19 77.7 °F /  25.4 °C 62.8 °F /  17.1 °C 30.03in /  1016.8hPa Calm   5mph /  8km/h 60% 0in /  0mm meteobridge W/m2
14:24 78.1 °F /  25.6 °C 62.6 °F /  17 °C 30.02in /  1016.5hPa Calm   3mph /  4.8km/h 59% 0in /  0mm meteobridge W/m2
14:29 78.4 °F /  25.8 °C 63 °F /  17.2 °C 30.02in /  1016.5hPa Calm   1mph /  1.6km/h 59% 0in /  0mm meteobridge W/m2
14:34 78.3 °F /  25.7 °C 63.7 °F /  17.6 °C 30.02in /  1016.5hPa Calm   1mph /  1.6km/h 61% 0in /  0mm meteobridge W/m2
14:39 78.4 °F /  25.8 °C 62.4 °F /  16.9 °C 30.02in /  1016.5hPa Calm   2mph /  3.2km/h 58% 0in /  0mm meteobridge W/m2
14:44 78.6 °F /  25.9 °C 63.1 °F /  17.3 °C 30.02in /  1016.5hPa Calm     59% 0in /  0mm meteobridge W/m2
14:49 79.2 °F /  26.2 °C 62.1 °F /  16.7 °C 30.02in /  1016.5hPa Calm   5mph /  8km/h 56% 0in /  0mm meteobridge W/m2
14:54 79.3 °F /  26.3 °C 61.7 °F /  16.5 °C 30.02in /  1016.5hPa North 0.9mph /  1.4km/h 3mph /  4.8km/h 55% 0in /  0mm meteobridge W/m2
14:59 79.3 °F /  26.3 °C 62.2 °F /  16.8 °C 30.01in /  1016.1hPa NNW 0.9mph /  1.4km/h 4mph /  6.4km/h 56% 0in /  0mm meteobridge W/m2
15:04 79.2 °F /  26.2 °C 62.1 °F /  16.7 °C 30.01in /  1016.1hPa Calm   3mph /  4.8km/h 56% 0in /  0mm meteobridge W/m2
15:09 79.2 °F /  26.2 °C 61.5 °F /  16.4 °C 30.01in /  1016.1hPa Calm   6mph /  9.7km/h 55% 0in /  0mm meteobridge W/m2
15:14 79.3 °F /  26.3 °C 61.2 °F /  16.2 °C 30.01in /  1016.1hPa Calm   1mph /  1.6km/h 54% 0in /  0mm meteobridge W/m2
15:19 79.3 °F /  26.3 °C 61.2 °F /  16.2 °C 30.01in /  1016.1hPa Calm   4mph /  6.4km/h 54% 0in /  0mm meteobridge W/m2
15:24 79.3 °F /  26.3 °C 62.8 °F /  17.1 °C 30.01in /  1016.1hPa Calm   1mph /  1.6km/h 57% 0in /  0mm meteobridge W/m2
15:29 79.7 °F /  26.5 °C 62.1 °F /  16.7 °C 30.01in /  1016.1hPa WNW 0.9mph /  1.4km/h 1mph /  1.6km/h 55% 0in /  0mm meteobridge W/m2
15:34 79.9 °F /  26.6 °C 61.2 °F /  16.2 °C 30.01in /  1016.1hPa Calm   1mph /  1.6km/h 53% 0in /  0mm meteobridge W/m2
15:39 79.5 °F /  26.4 °C 60.8 °F /  16 °C 30.01in /  1016.1hPa Calm   1mph /  1.6km/h 53% 0in /  0mm meteobridge W/m2
15:44 79.7 °F /  26.5 °C 61 °F /  16.1 °C 30.01in /  1016.1hPa Calm   2mph /  3.2km/h 53% 0in /  0mm meteobridge W/m2
15:49 79.9 °F /  26.6 °C 60.1 °F /  15.6 °C 30.01in /  1016.1hPa Calm   4mph /  6.4km/h 51% 0in /  0mm meteobridge W/m2
15:54 80.1 °F /  26.7 °C 60.8 °F /  16 °C 30.01in /  1016.1hPa Calm   3mph /  4.8km/h 52% 0in /  0mm meteobridge W/m2
15:59 80.2 °F /  26.8 °C 62.1 °F /  16.7 °C 30.01in /  1016.1hPa Calm   1mph /  1.6km/h 54% 0in /  0mm meteobridge W/m2
16:04 80.1 °F /  26.7 °C 61.9 °F /  16.6 °C 30.01in /  1016.1hPa Calm   4mph /  6.4km/h 54% 0in /  0mm meteobridge W/m2
16:09 80.1 °F /  26.7 °C 60.8 °F /  16 °C 30.01in /  1016.1hPa Calm   1mph /  1.6km/h 52% 0in /  0mm meteobridge W/m2
16:14 80.1 °F /  26.7 °C 60.3 °F /  15.7 °C 30.01in /  1016.1hPa NNE 0.9mph /  1.4km/h 2mph /  3.2km/h 51% 0in /  0mm meteobridge W/m2
16:19 80.2 °F /  26.8 °C 59.9 °F /  15.5 °C 30.00in /  1015.8hPa Calm   8mph /  12.9km/h 50% 0in /  0mm meteobridge W/m2
16:24 80.4 °F /  26.9 °C 60.1 °F /  15.6 °C 30.00in /  1015.8hPa NE 0.9mph /  1.4km/h 3mph /  4.8km/h 50% 0in /  0mm meteobridge W/m2
16:29 80.2 °F /  26.8 °C 59.4 °F /  15.2 °C 30.00in /  1015.8hPa NNW 2mph /  3.2km/h 5mph /  8km/h 49% 0in /  0mm meteobridge W/m2
16:34 80.1 °F /  26.7 °C 60.8 °F /  16 °C 30.00in /  1015.8hPa East 4mph /  6.4km/h 6mph /  9.7km/h 52% 0in /  0mm meteobridge W/m2
16:39 80.1 °F /  26.7 °C 58.1 °F /  14.5 °C 30.00in /  1015.8hPa North 0.9mph /  1.4km/h 2mph /  3.2km/h 47% 0in /  0mm meteobridge W/m2
16:44 80.2 °F /  26.8 °C 59.4 °F /  15.2 °C 30.00in /  1015.8hPa NNW 0.9mph /  1.4km/h 3mph /  4.8km/h 49% 0in /  0mm meteobridge W/m2
16:49 80.2 °F /  26.8 °C 61 °F /  16.1 °C 29.99in /  1015.5hPa Calm   2mph /  3.2km/h 52% 0in /  0mm meteobridge W/m2
16:54 80.1 °F /  26.7 °C 61.3 °F /  16.3 °C 29.99in /  1015.5hPa Calm   3mph /  4.8km/h 53% 0in /  0mm meteobridge W/m2
16:59 80.1 °F /  26.7 °C 61.3 °F /  16.3 °C 30.00in /  1015.8hPa Calm   6mph /  9.7km/h 53% 0in /  0mm meteobridge W/m2
17:04 79.9 °F /  26.6 °C 62.2 °F /  16.8 °C 29.99in /  1015.5hPa NW 0.9mph /  1.4km/h 4mph /  6.4km/h 55% 0in /  0mm meteobridge W/m2
17:09 80.1 °F /  26.7 °C 62.4 °F /  16.9 °C 29.99in /  1015.5hPa SE 2mph /  3.2km/h 2mph /  3.2km/h 55% 0in /  0mm meteobridge W/m2
17:14 80.1 °F /  26.7 °C 59.2 °F /  15.1 °C 29.99in /  1015.5hPa Calm   4mph /  6.4km/h 49% 0in /  0mm meteobridge W/m2
17:19 80.4 °F /  26.9 °C 58.3 °F /  14.6 °C 29.98in /  1015.1hPa Calm   2mph /  3.2km/h 47% 0in /  0mm meteobridge W/m2
17:24 80.2 °F /  26.8 °C 59.9 °F /  15.5 °C 29.98in /  1015.1hPa Calm   2mph /  3.2km/h 50% 0in /  0mm meteobridge W/m2
17:29 80.1 °F /  26.7 °C 61.3 °F /  16.3 °C 29.98in /  1015.1hPa Calm   1mph /  1.6km/h 53% 0in /  0mm meteobridge W/m2
17:34 79.9 °F /  26.6 °C 61.2 °F /  16.2 °C 29.98in /  1015.1hPa Calm   5mph /  8km/h 53% 0in /  0mm meteobridge W/m2
17:39 79.9 °F /  26.6 °C 61.7 °F /  16.5 °C 29.98in /  1015.1hPa Calm     54% 0in /  0mm meteobridge W/m2
17:44 79.3 °F /  26.3 °C 61.7 °F /  16.5 °C 29.98in /  1015.1hPa Calm   1mph /  1.6km/h 55% 0in /  0mm meteobridge W/m2
17:49 79.2 °F /  26.2 °C 61.5 °F /  16.4 °C 29.98in /  1015.1hPa Calm   2mph /  3.2km/h 55% 0in /  0mm meteobridge W/m2
17:54 79.2 °F /  26.2 °C 62.6 °F /  17 °C 29.98in /  1015.1hPa Calm   1mph /  1.6km/h 57% 0in /  0mm meteobridge W/m2
17:59 79 °F /  26.1 °C 62.4 °F /  16.9 °C 29.97in /  1014.8hPa Calm   1mph /  1.6km/h 57% 0in /  0mm meteobridge W/m2
18:04 78.8 °F /  26 °C 64.2 °F /  17.9 °C 29.97in /  1014.8hPa Calm     61% 0in /  0mm meteobridge W/m2
18:09 78.4 °F /  25.8 °C 63 °F /  17.2 °C 29.97in /  1014.8hPa Calm     59% 0in /  0mm meteobridge W/m2
18:14 78.3 °F /  25.7 °C 62.2 °F /  16.8 °C 29.96in /  1014.4hPa Calm   2mph /  3.2km/h 58% 0in /  0mm meteobridge W/m2
18:19 78.1 °F /  25.6 °C 62.6 °F /  17 °C 29.97in /  1014.8hPa Calm   1mph /  1.6km/h 59% 0in /  0mm meteobridge W/m2
18:24 77.7 °F /  25.4 °C 64 °F /  17.8 °C 29.96in /  1014.4hPa Calm   1mph /  1.6km/h 63% 0in /  0mm meteobridge W/m2
18:29 77.7 °F /  25.4 °C 63.7 °F /  17.6 °C 29.96in /  1014.4hPa Calm     62% 0in /  0mm meteobridge W/m2
18:34 77.4 °F /  25.2 °C 62.4 °F /  16.9 °C 29.96in /  1014.4hPa Calm   2mph /  3.2km/h 60% 0in /  0mm meteobridge W/m2
18:39 77.2 °F /  25.1 °C 63.7 °F /  17.6 °C 29.96in /  1014.4hPa Calm     63% 0in /  0mm meteobridge W/m2
18:44 76.6 °F /  24.8 °C 63.1 °F /  17.3 °C 29.96in /  1014.4hPa Calm     63% 0in /  0mm meteobridge W/m2
18:49 76.6 °F /  24.8 °C 64 °F /  17.8 °C 29.96in /  1014.4hPa Calm   1mph /  1.6km/h 65% 0in /  0mm meteobridge W/m2
18:54 76.3 °F /  24.6 °C 64 °F /  17.8 °C 29.96in /  1014.4hPa Calm     66% 0in /  0mm meteobridge W/m2
18:59 75.9 °F /  24.4 °C 64.6 °F /  18.1 °C 29.96in /  1014.4hPa Calm     68% 0in /  0mm meteobridge W/m2
19:04 75.7 °F /  24.3 °C 63.1 °F /  17.3 °C 29.96in /  1014.4hPa Calm     65% 0in /  0mm meteobridge W/m2
19:09 75.4 °F /  24.1 °C 62.8 °F /  17.1 °C 29.96in /  1014.4hPa Calm     65% 0in /  0mm meteobridge W/m2
19:14 75.4 °F /  24.1 °C 64 °F /  17.8 °C 29.96in /  1014.4hPa Calm     68% 0in /  0mm meteobridge W/m2
19:19 75 °F /  23.9 °C 63.3 °F /  17.4 °C 29.96in /  1014.4hPa Calm     67% 0in /  0mm meteobridge W/m2
19:24 74.8 °F /  23.8 °C 63.1 °F /  17.3 °C 29.96in /  1014.4hPa Calm     67% 0in /  0mm meteobridge W/m2
19:29 74.7 °F /  23.7 °C 63.9 °F /  17.7 °C 29.96in /  1014.4hPa Calm     69% 0in /  0mm meteobridge W/m2
19:34 74.5 °F /  23.6 °C 63.7 °F /  17.6 °C 29.96in /  1014.4hPa Calm     69% 0in /  0mm meteobridge W/m2
19:39 74.1 °F /  23.4 °C 64 °F /  17.8 °C 29.96in /  1014.4hPa Calm     71% 0in /  0mm meteobridge W/m2
19:44 73.9 °F /  23.3 °C 63.5 °F /  17.5 °C 29.96in /  1014.4hPa Calm     70% 0in /  0mm meteobridge W/m2
19:49 73.6 °F /  23.1 °C 63.7 °F /  17.6 °C 29.96in /  1014.4hPa Calm     71% 0in /  0mm meteobridge W/m2
19:54 73.2 °F /  22.9 °C 63.7 °F /  17.6 °C 29.96in /  1014.4hPa Calm     72% 0in /  0mm meteobridge W/m2
19:59 73 °F /  22.8 °C 63.9 °F /  17.7 °C 29.96in /  1014.4hPa Calm     73% 0in /  0mm meteobridge W/m2
20:04 72.7 °F /  22.6 °C 63.9 °F /  17.7 °C 29.96in /  1014.4hPa Calm     74% 0in /  0mm meteobridge W/m2
20:09 72.5 °F /  22.5 °C 64 °F /  17.8 °C 29.96in /  1014.4hPa Calm     75% 0in /  0mm meteobridge W/m2
20:14 72.1 °F /  22.3 °C 63.9 °F /  17.7 °C 29.96in /  1014.4hPa Calm     75% 0in /  0mm meteobridge W/m2
20:19 71.8 °F /  22.1 °C 63.9 °F /  17.7 °C 29.97in /  1014.8hPa Calm     76% 0in /  0mm meteobridge W/m2
20:24 71.4 °F /  21.9 °C 63.5 °F /  17.5 °C 29.97in /  1014.8hPa Calm     76% 0in /  0mm meteobridge W/m2
20:29 71.2 °F /  21.8 °C 63.7 °F /  17.6 °C 29.97in /  1014.8hPa Calm     77% 0in /  0mm meteobridge W/m2
20:34 71.1 °F /  21.7 °C 63.9 °F /  17.7 °C 29.97in /  1014.8hPa Calm     78% 0in /  0mm meteobridge W/m2
20:39 70.9 °F /  21.6 °C 63.7 °F /  17.6 °C 29.97in /  1014.8hPa Calm     78% 0in /  0mm meteobridge W/m2
20:44 70.5 °F /  21.4 °C 63.7 °F /  17.6 °C 29.97in /  1014.8hPa Calm     79% 0in /  0mm meteobridge W/m2
20:49 70.2 °F /  21.2 °C 63.7 °F /  17.6 °C 29.97in /  1014.8hPa Calm     80% 0in /  0mm meteobridge W/m2
20:54 69.6 °F /  20.9 °C 63.5 °F /  17.5 °C 29.97in /  1014.8hPa Calm     81% 0in /  0mm meteobridge W/m2
20:59 69.3 °F /  20.7 °C 63.1 °F /  17.3 °C 29.97in /  1014.8hPa Calm     81% 0in /  0mm meteobridge W/m2
21:04 68.9 °F /  20.5 °C 63.1 °F /  17.3 °C 29.97in /  1014.8hPa Calm     82% 0in /  0mm meteobridge W/m2
21:09 68.5 °F /  20.3 °C 62.8 °F /  17.1 °C 29.97in /  1014.8hPa Calm     82% 0in /  0mm meteobridge W/m2
21:14 68.2 °F /  20.1 °C 62.8 °F /  17.1 °C 29.98in /  1015.1hPa Calm     83% 0in /  0mm meteobridge W/m2
21:19 68 °F /  20 °C 63 °F /  17.2 °C 29.98in /  1015.1hPa Calm     84% 0in /  0mm meteobridge W/m2
21:24 67.6 °F /  19.8 °C 63 °F /  17.2 °C 29.98in /  1015.1hPa Calm     85% 0in /  0mm meteobridge W/m2
21:29 67.3 °F /  19.6 °C 63 °F /  17.2 °C 29.98in /  1015.1hPa Calm     86% 0in /  0mm meteobridge W/m2
21:34 66.9 °F /  19.4 °C 62.6 °F /  17 °C 29.99in /  1015.5hPa Calm     86% 0in /  0mm meteobridge W/m2
21:39 66.7 °F /  19.3 °C 62.4 °F /  16.9 °C 29.99in /  1015.5hPa Calm     86% 0in /  0mm meteobridge W/m2
21:44 66.6 °F /  19.2 °C 62.6 °F /  17 °C 29.99in /  1015.5hPa Calm     87% 0in /  0mm meteobridge W/m2
21:49 66 °F /  18.9 °C 62.1 °F /  16.7 °C 29.99in /  1015.5hPa Calm     87% 0in /  0mm meteobridge W/m2
21:54 65.8 °F /  18.8 °C 62.2 °F /  16.8 °C 29.99in /  1015.5hPa Calm     88% 0in /  0mm meteobridge W/m2
21:59 65.8 °F /  18.8 °C 62.2 °F /  16.8 °C 30.00in /  1015.8hPa Calm     88% 0in /  0mm meteobridge W/m2
22:04 65.5 °F /  18.6 °C 61.9 °F /  16.6 °C 30.00in /  1015.8hPa Calm     88% 0in /  0mm meteobridge W/m2
22:09 65.1 °F /  18.4 °C 61.9 °F /  16.6 °C 30.00in /  1015.8hPa Calm     89% 0in /  0mm meteobridge W/m2
22:14 65.1 °F /  18.4 °C 61.9 °F /  16.6 °C 30.00in /  1015.8hPa Calm     89% 0in /  0mm meteobridge W/m2
22:19 64.9 °F /  18.3 °C 61.7 °F /  16.5 °C 30.00in /  1015.8hPa Calm     89% 0in /  0mm meteobridge W/m2
22:24 64.8 °F /  18.2 °C 61.7 °F /  16.5 °C 30.00in /  1015.8hPa Calm     90% 0in /  0mm meteobridge W/m2
22:29 64.6 °F /  18.1 °C 61.5 °F /  16.4 °C 30.01in /  1016.1hPa Calm     90% 0in /  0mm meteobridge W/m2
22:34 64.4 °F /  18 °C 61.3 °F /  16.3 °C 30.01in /  1016.1hPa Calm     90% 0in /  0mm meteobridge W/m2
22:39 64.2 °F /  17.9 °C 61.5 °F /  16.4 °C 30.01in /  1016.1hPa Calm     91% 0in /  0mm meteobridge W/m2
22:44 64 °F /  17.8 °C 61.3 °F /  16.3 °C 30.01in /  1016.1hPa Calm     91% 0in /  0mm meteobridge W/m2
22:49 63.9 °F /  17.7 °C 61.2 °F /  16.2 °C 30.01in /  1016.1hPa Calm     91% 0in /  0mm meteobridge W/m2
22:54 63.9 °F /  17.7 °C 61.2 °F /  16.2 °C 30.01in /  1016.1hPa Calm     91% 0in /  0mm meteobridge W/m2
22:59 63.7 °F /  17.6 °C 61.3 °F /  16.3 °C 30.01in /  1016.1hPa Calm     92% 0in /  0mm meteobridge W/m2
23:04 63.5 °F /  17.5 °C 61.2 °F /  16.2 °C 30.01in /  1016.1hPa Calm     92% 0in /  0mm meteobridge W/m2
23:09 63.3 °F /  17.4 °C 61 °F /  16.1 °C 30.01in /  1016.1hPa Calm     92% 0in /  0mm meteobridge W/m2
23:14 63.1 °F /  17.3 °C 60.8 °F /  16 °C 30.01in /  1016.1hPa Calm     92% 0in /  0mm meteobridge W/m2
23:19 63 °F /  17.2 °C 61 °F /  16.1 °C 30.01in /  1016.1hPa Calm     93% 0in /  0mm meteobridge W/m2
23:24 63 °F /  17.2 °C 61 °F /  16.1 °C 30.01in /  1016.1hPa Calm     93% 0in /  0mm meteobridge W/m2
23:29 62.8 °F /  17.1 °C 60.8 °F /  16 °C 30.01in /  1016.1hPa Calm     93% 0in /  0mm meteobridge W/m2
23:34 62.8 °F /  17.1 °C 60.8 °F /  16 °C 30.01in /  1016.1hPa Calm     93% 0in /  0mm meteobridge W/m2
23:39 62.4 °F /  16.9 °C 60.4 °F /  15.8 °C 30.00in /  1015.8hPa Calm     93% 0in /  0mm meteobridge W/m2
23:44 62.4 °F /  16.9 °C 60.4 °F /  15.8 °C 30.01in /  1016.1hPa Calm     93% 0in /  0mm meteobridge W/m2
23:49 62.2 °F /  16.8 °C 60.3 °F /  15.7 °C 30.00in /  1015.8hPa Calm     93% 0in /  0mm meteobridge W/m2
23:54 62.2 °F /  16.8 °C 60.3 °F /  15.7 °C 30.01in /  1016.1hPa Calm     93% 0in /  0mm meteobridge W/m2
23:59 62.1 °F /  16.7 °C 60.1 °F /  15.6 °C 30.01in /  1016.1hPa Calm     93% 0in /  0mm meteobridge W/m2
EllijayWeather
Compliments of Weather Underground - 2.5 mb